Terminal Aerodrome Forecast
Issued by NWS

Home | Current Version | Previous Version | Text Only | Print | Product List | Glossary On
Versions: 1 2 3 4 5 6 7 8 9 10 11 12 13 14 15 16 17 18 19 20 21 22 23 24 25 26 27
000
FTPA31 PHFO 201100
TAFMKK
TAF
PHMK 201120Z 2012/2112 03007KT P6SM SKC
     FM201900 04011G20KT P6SM FEW030 SCT050
     FM210500 04010KT P6SM FEW025=

USA.gov is the U.S. government's official web portal to all federal, state and local government web resources and services.